Wetterdaten: Woche 27.09.10 - 03.10.10 (KW39)
Datum Zeit Temp. A. Feuchte A. Luftdruck Regen Wind Richtung Taupunkt Windchill Windben
27.09.2010 00:00 10,0 C 81 % 1007,6 hPa 0,3 l/m 3,1 km/h W-NW 6,9 C 10,0 C 18,1 km/h
27.09.2010 01:00 10,2 C 79 % 1007,9 hPa 0,0 l/m 3,6 km/h NW 6,6 C 10,2 C 17,7 km/h
27.09.2010 02:00 10,4 C 79 % 1007,8 hPa 0,0 l/m 2,8 km/h SW 6,9 C 10,4 C 14,1 km/h
27.09.2010 03:00 10,3 C 80 % 1007,9 hPa 0,3 l/m 2,0 km/h SW 6,9 C 10,3 C 12,5 km/h
27.09.2010 04:00 10,1 C 82 % 1007,9 hPa 0,8 l/m 2,2 km/h NO 7,1 C 10,1 C 9,7 km/h
27.09.2010 05:00 9,9 C 82 % 1007,9 hPa 0,3 l/m 1,1 km/h S-SO 7,0 C 9,9 C 8,4 km/h
27.09.2010 06:00 9,8 C 83 % 1008,4 hPa 0,3 l/m 0,2 km/h N 7,0 C 9,8 C 3,2 km/h
27.09.2010 07:00 9,9 C 82 % 1008,6 hPa 0,0 l/m 0,6 km/h W-SW 6,8 C 9,9 C 7,3 km/h
27.09.2010 08:00 10,5 C 79 % 1008,9 hPa 0,0 l/m 1,1 km/h S 6,9 C 10,5 C 9,3 km/h
27.09.2010 09:00 11,6 C 74 % 1009,3 hPa 0,0 l/m 2,2 km/h S 7,1 C 11,6 C 15,3 km/h
27.09.2010 10:00 13,0 C 69 % 1009,2 hPa 0,0 l/m 2,9 km/h S-SO 7,4 C 13,0 C 14,5 km/h
27.09.2010 11:00 14,4 C 61 % 1009,2 hPa 0,0 l/m 4,4 km/h NW 7,0 C 14,4 C 19,7 km/h
27.09.2010 12:00 16,5 C 55 % 1009,1 hPa 0,0 l/m 4,4 km/h SW 7,3 C 16,5 C 18,5 km/h
27.09.2010 13:00 17,7 C 51 % 1008,8 hPa 0,0 l/m 4,8 km/h W 7,3 C 17,7 C 18,1 km/h
27.09.2010 14:00 18,0 C 51 % 1008,6 hPa 0,0 l/m 4,0 km/h NW 7,7 C 18,0 C 12,5 km/h
27.09.2010 15:00 18,1 C 50 % 1008,3 hPa 0,0 l/m 3,8 km/h NW 7,6 C 18,1 C 10,9 km/h
27.09.2010 16:00 17,9 C 53 % 1008,4 hPa 0,0 l/m 3,2 km/h S 8,2 C 17,9 C 12,1 km/h
27.09.2010 17:00 17,2 C 56 % 1008,6 hPa 0,0 l/m 1,4 km/h W 8,2 C 17,2 C 6,4 km/h
27.09.2010 18:00 15,4 C 61 % 1009,1 hPa 0,0 l/m 0,3 km/h N 7,8 C 15,4 C 3,6 km/h
27.09.2010 19:00 14,0 C 65 % 1009,4 hPa 0,0 l/m 0,6 km/h S 7,4 C 14,0 C 5,6 km/h
27.09.2010 20:00 13,6 C 66 % 1009,5 hPa 0,0 l/m 1,0 km/h SW 7,3 C 13,6 C 7,2 km/h
27.09.2010 21:00 13,3 C 65 % 1009,6 hPa 0,0 l/m 0,2 km/h SW 6,8 C 13,3 C 5,6 km/h
27.09.2010 22:00 13,4 C 61 % 1009,3 hPa 0,0 l/m 1,7 km/h SW 6,0 C 13,4 C 10,9 km/h
27.09.2010 23:00 13,5 C 60 % 1009,3 hPa 0,0 l/m 1,7 km/h S 5,9 C 13,5 C 11,3 km/h
28.09.2010 00:00 13,6 C 59 % 1009,2 hPa 0,0 l/m 4,3 km/h S-SW 5,6 C 13,6 C 18,9 km/h
28.09.2010 01:00 13,3 C 59 % 1009,5 hPa 0,0 l/m 4,3 km/h S 5,5 C 13,3 C 22,9 km/h
28.09.2010 02:00 12,6 C 63 % 1009,9 hPa 0,0 l/m 0,9 km/h S-SW 5,6 C 12,6 C 8,1 km/h
28.09.2010 03:00 11,9 C 64 % 1009,8 hPa 0,0 l/m 1,7 km/h S-SO 5,3 C 11,9 C 11,3 km/h
28.09.2010 04:00 11,7 C 66 % 1009,8 hPa 0,0 l/m 1,9 km/h S 5,6 C 11,7 C 10,1 km/h
28.09.2010 05:00 11,8 C 64 % 1009,7 hPa 0,0 l/m 3,6 km/h SW 5,2 C 11,8 C 15,7 km/h
28.09.2010 06:00 11,7 C 63 % 1009,9 hPa 0,0 l/m 4,9 km/h S-SO 4,9 C 11,7 C 20,9 km/h
28.09.2010 07:00 11,6 C 64 % 1010,3 hPa 0,0 l/m 3,6 km/h SW 4,9 C 11,6 C 18,9 km/h
28.09.2010 08:00 11,8 C 63 % 1010,6 hPa 0,0 l/m 5,3 km/h S 5,1 C 11,8 C 20,9 km/h
28.09.2010 09:00 13,1 C 59 % 1010,9 hPa 0,0 l/m 7,7 km/h S-SO 5,3 C 12,3 C 29,0 km/h
28.09.2010 10:00 13,4 C 60 % 1011,2 hPa 0,0 l/m 7,5 km/h S-SO 5,7 C 12,7 C 28,2 km/h
28.09.2010 11:00 13,5 C 60 % 1011,6 hPa 0,0 l/m 9,0 km/h SO 5,9 C 12,0 C 29,8 km/h
28.09.2010 12:00 13,6 C 60 % 1011,9 hPa 0,0 l/m 8,5 km/h SW 5,9 C 12,3 C 26,1 km/h
28.09.2010 13:00 13,8 C 59 % 1012,5 hPa 0,0 l/m 7,5 km/h SW 5,9 C 13,1 C 27,0 km/h
28.09.2010 14:00 13,7 C 60 % 1012,6 hPa 0,0 l/m 6,9 km/h NW 6,2 C 13,4 C 27,4 km/h
28.09.2010 15:00 13,6 C 62 % 1013,1 hPa 0,0 l/m 6,4 km/h NW 6,5 C 13,2 C 23,3 km/h
28.09.2010 16:00 12,3 C 69 % 1013,4 hPa 0,0 l/m 6,8 km/h S-SW 6,7 C 11,9 C 24,5 km/h
28.09.2010 17:00 11,4 C 74 % 1013,5 hPa 0,0 l/m 6,1 km/h W 6,9 C 11,4 C 22,9 km/h
28.09.2010 18:00 11,1 C 74 % 1014,1 hPa 0,0 l/m 7,4 km/h W 6,7 C 10,5 C 27,7 km/h
28.09.2010 19:00 11,2 C 74 % 1014,4 hPa 0,0 l/m 7,3 km/h W-SW 6,7 C 10,6 C 25,8 km/h
28.09.2010 20:00 11,2 C 75 % 1014,8 hPa 0,0 l/m 7,0 km/h W-NW 6,9 C 10,7 C 25,3 km/h
28.09.2010 21:00 11,1 C 75 % 1014,9 hPa 0,0 l/m 6,8 km/h O-SO 6,9 C 10,7 C 27,0 km/h
28.09.2010 22:00 11,3 C 75 % 1015,0 hPa 0,0 l/m 6,6 km/h S-SO 7,0 C 10,9 C 22,5 km/h
28.09.2010 23:00 11,2 C 75 % 1015,2 hPa 0,0 l/m 3,8 km/h S-SW 7,0 C 11,2 C 19,7 km/h
29.09.2010 00:00 11,4 C 75 % 1015,2 hPa 0,0 l/m 4,1 km/h W-NW 7,1 C 11,4 C 19,3 km/h
29.09.2010 01:00 11,1 C 77 % 1015,5 hPa 0,0 l/m 5,5 km/h S-SW 7,2 C 11,1 C 23,7 km/h
29.09.2010 02:00 11,2 C 77 % 1015,3 hPa 0,0 l/m 4,8 km/h SO 7,3 C 11,2 C 22,5 km/h
29.09.2010 03:00 11,3 C 77 % 1015,1 hPa 0,0 l/m 3,5 km/h NW 7,4 C 11,3 C 18,9 km/h
29.09.2010 04:00 11,1 C 79 % 1014,8 hPa 0,0 l/m 5,2 km/h S-SW 7,5 C 11,1 C 20,1 km/h
29.09.2010 05:00 10,8 C 81 % 1014,7 hPa 0,0 l/m 3,3 km/h S-SO 7,7 C 10,8 C 16,9 km/h
29.09.2010 06:00 10,9 C 81 % 1014,8 hPa 0,0 l/m 4,6 km/h S-SO 7,7 C 10,9 C 15,7 km/h
29.09.2010 07:00 10,8 C 81 % 1015,3 hPa 0,0 l/m 1,9 km/h NW 7,6 C 10,8 C 7,6 km/h
29.09.2010 08:00 10,9 C 83 % 1015,8 hPa 0,0 l/m 2,1 km/h NW 8,1 C 10,9 C 9,6 km/h
29.09.2010 09:00 11,3 C 82 % 1016,0 hPa 0,0 l/m 2,3 km/h NW 8,4 C 11,3 C 12,1 km/h
29.09.2010 10:00 12,1 C 79 % 1016,3 hPa 0,0 l/m 3,4 km/h NW 8,5 C 12,1 C 12,5 km/h
29.09.2010 11:00 13,0 C 76 % 1016,0 hPa 0,0 l/m 3,3 km/h W-SW 8,8 C 13,0 C 14,5 km/h
29.09.2010 12:00 14,8 C 69 % 1015,9 hPa 0,0 l/m 6,0 km/h S 9,1 C 14,8 C 20,1 km/h
29.09.2010 13:00 14,3 C 70 % 1015,8 hPa 0,0 l/m 3,9 km/h N-NW 9,0 C 14,3 C 15,3 km/h
29.09.2010 14:00 14,6 C 69 % 1015,6 hPa 0,0 l/m 5,2 km/h NW 8,9 C 14,3 C 16,5 km/h
29.09.2010 15:00 14,2 C 68 % 1015,7 hPa 0,0 l/m 5,1 km/h NW 8,4 C 14,2 C 20,9 km/h
29.09.2010 16:00 13,3 C 66 % 1015,7 hPa 0,0 l/m 5,5 km/h NW 7,1 C 13,3 C 16,9 km/h
29.09.2010 17:00 12,7 C 64 % 1016,0 hPa 0,0 l/m 4,9 km/h N-NW 6,0 C 12,7 C 17,3 km/h
29.09.2010 18:00 12,1 C 66 % 1016,5 hPa 0,0 l/m 4,5 km/h NW 5,8 C 12,1 C 13,7 km/h
29.09.2010 19:00 11,3 C 70 % 1017,1 hPa 0,0 l/m 3,7 km/h NW 5,9 C 11,3 C 9,6 km/h
29.09.2010 20:00 10,8 C 73 % 1017,4 hPa 0,0 l/m 1,8 km/h N-NW 6,0 C 10,8 C 6,4 km/h
29.09.2010 21:00 10,6 C 74 % 1017,8 hPa 0,0 l/m 3,0 km/h NW 6,2 C 10,6 C 8,9 km/h
29.09.2010 22:00 10,6 C 74 % 1017,7 hPa 0,0 l/m 2,0 km/h NW 6,2 C 10,6 C 8,4 km/h
29.09.2010 23:00 10,5 C 75 % 1017,7 hPa 0,0 l/m 2,0 km/h NW 6,2 C 10,5 C 6,0 km/h
30.09.2010 00:00 9,9 C 76 % 1017,8 hPa 0,0 l/m 1,6 km/h N-NW 5,8 C 9,9 C 8,4 km/h
30.09.2010 01:00 9,4 C 77 % 1018,0 hPa 0,0 l/m 1,9 km/h NW 5,7 C 9,4 C 7,2 km/h
30.09.2010 02:00 9,6 C 78 % 1018,0 hPa 0,0 l/m 0,9 km/h N 5,8 C 9,6 C 5,2 km/h
30.09.2010 03:00 9,6 C 77 % 1017,9 hPa 0,0 l/m 0,9 km/h NW 5,7 C 9,6 C 6,4 km/h
30.09.2010 04:00 9,4 C 77 % 1017,9 hPa 0,0 l/m 1,3 km/h N-NW 5,5 C 9,4 C 5,6 km/h
30.09.2010 05:00 9,1 C 77 % 1017,8 hPa 0,0 l/m 0,8 km/h NW 5,4 C 9,1 C 4,4 km/h
30.09.2010 06:00 8,8 C 77 % 1017,9 hPa 0,0 l/m 1,0 km/h NW 5,0 C 8,8 C 7,2 km/h
30.09.2010 07:00 8,8 C 77 % 1018,1 hPa 0,0 l/m 0,9 km/h W-SW 5,1 C 8,8 C 8,8 km/h
30.09.2010 08:00 9,1 C 78 % 1018,5 hPa 0,0 l/m 1,3 km/h S 5,4 C 9,1 C 7,2 km/h
30.09.2010 09:00 9,6 C 76 % 1018,7 hPa 0,0 l/m 2,0 km/h N-NW 5,6 C 9,6 C 8,9 km/h
30.09.2010 10:00 10,2 C 74 % 1018,8 hPa 0,0 l/m 2,5 km/h NW 5,7 C 10,2 C 10,1 km/h
30.09.2010 11:00 11,2 C 69 % 1018,8 hPa 0,0 l/m 3,3 km/h N-NW 5,7 C 11,2 C 10,1 km/h
30.09.2010 12:00 11,9 C 63 % 1018,5 hPa 0,0 l/m 3,4 km/h N 5,1 C 11,9 C 11,3 km/h
30.09.2010 13:00 12,4 C 57 % 1018,2 hPa 0,0 l/m 3,9 km/h N-NW 4,1 C 12,4 C 10,9 km/h
30.09.2010 14:00 13,0 C 53 % 1017,9 hPa 0,0 l/m 3,2 km/h NW 3,6 C 13,0 C 10,9 km/h
30.09.2010 15:00 12,6 C 56 % 1017,9 hPa 0,0 l/m 2,7 km/h NW 4,0 C 12,6 C 10,1 km/h
30.09.2010 16:00 12,7 C 57 % 1017,6 hPa 0,0 l/m 1,4 km/h W-SW 4,4 C 12,7 C 6,4 km/h
30.09.2010 17:00 12,4 C 56 % 1017,6 hPa 0,0 l/m 0,9 km/h N-NO 3,8 C 12,4 C 4,4 km/h
30.09.2010 18:00 11,7 C 61 % 1017,9 hPa 0,0 l/m 0,3 km/h N 4,4 C 11,7 C 2,4 km/h
30.09.2010 19:00 10,4 C 68 % 1018,0 hPa 0,0 l/m 0,0 km/h N 4,7 C 10,4 C 0,8 km/h
30.09.2010 20:00 8,5 C 75 % 1018,2 hPa 0,0 l/m 0,1 km/h N 4,3 C 8,5 C 1,6 km/h
30.09.2010 21:00 7,5 C 78 % 1018,3 hPa 0,0 l/m 0,0 km/h N 3,9 C 7,5 C 1,2 km/h
30.09.2010 22:00 6,7 C 80 % 1018,6 hPa 0,0 l/m 0,1 km/h N 3,5 C 6,7 C 2,0 km/h
30.09.2010 23:00 6,4 C 82 % 1018,5 hPa 0,0 l/m 0,1 km/h N 3,6 C 6,4 C 0,4 km/h
01.10.2010 00:00 6,8 C 84 % 1018,1 hPa 0,0 l/m 0,0 km/h N 4,2 C 6,8 C 1,2 km/h
01.10.2010 01:00 6,7 C 84 % 1018,0 hPa 0,0 l/m 0,0 km/h N 4,2 C 6,7 C 0,8 km/h
01.10.2010 02:00 6,3 C 84 % 1017,9 hPa 0,0 l/m 0,0 km/h N 3,8 C 6,3 C 0,0 km/h
01.10.2010 03:00 5,5 C 84 % 1017,8 hPa 0,0 l/m 0,0 km/h N 3,0 C 5,5 C 0,0 km/h
01.10.2010 04:00 4,6 C 85 % 1017,8 hPa 0,0 l/m 0,0 km/h N 2,3 C 4,6 C 0,0 km/h
01.10.2010 05:00 4,4 C 86 % 1017,7 hPa 0,0 l/m 0,0 km/h N 2,3 C 4,4 C 0,0 km/h
01.10.2010 06:00 4,8 C 87 % 1017,6 hPa 0,0 l/m 0,0 km/h N 2,8 C 4,8 C 0,8 km/h
01.10.2010 07:00 5,1 C 87 % 1017,8 hPa 0,0 l/m 0,0 km/h N 3,1 C 5,1 C 0,0 km/h
01.10.2010 08:00 5,4 C 88 % 1018,3 hPa 0,0 l/m 0,0 km/h N 3,5 C 5,4 C 0,4 km/h
01.10.2010 09:00 7,1 C 88 % 1018,4 hPa 0,0 l/m 0,1 km/h N 5,3 C 7,1 C 2,0 km/h
01.10.2010 10:00 8,5 C 86 % 1018,3 hPa 0,0 l/m 0,0 km/h N 6,3 C 8,5 C 0,4 km/h
01.10.2010 11:00 9,9 C 81 % 1018,2 hPa 0,0 l/m 0,3 km/h N 6,7 C 9,9 C 4,0 km/h
01.10.2010 12:00 10,9 C 75 % 1017,8 hPa 0,0 l/m 0,3 km/h N 6,7 C 10,9 C 2,7 km/h
01.10.2010 13:00 12,0 C 72 % 1017,6 hPa 0,0 l/m 0,4 km/h N 7,0 C 12,0 C 2,8 km/h
01.10.2010 14:00 12,5 C 71 % 1017,4 hPa 0,0 l/m 0,2 km/h N 7,2 C 12,5 C 2,0 km/h
01.10.2010 15:00 13,1 C 67 % 1017,3 hPa 0,0 l/m 0,4 km/h N 7,2 C 13,1 C 2,8 km/h
01.10.2010 16:00 12,9 C 69 % 1017,4 hPa 0,0 l/m 0,0 km/h N 7,3 C 12,9 C 1,6 km/h
01.10.2010 17:00 12,5 C 71 % 1017,6 hPa 0,0 l/m 0,0 km/h N 7,3 C 12,5 C 0,4 km/h
01.10.2010 18:00 11,9 C 73 % 1017,9 hPa 0,0 l/m 0,0 km/h N 7,2 C 11,9 C 0,0 km/h
01.10.2010 19:00 11,5 C 76 % 1018,1 hPa 0,0 l/m 0,0 km/h N 7,3 C 11,5 C 0,0 km/h
01.10.2010 20:00 11,1 C 77 % 1018,4 hPa 0,0 l/m 0,0 km/h N 7,2 C 11,1 C 0,0 km/h
01.10.2010 21:00 10,8 C 77 % 1018,6 hPa 0,0 l/m 0,0 km/h N 7,0 C 10,8 C 0,0 km/h
01.10.2010 22:00 10,4 C 78 % 1019,1 hPa 0,0 l/m 0,0 km/h N 6,7 C 10,4 C 0,0 km/h
01.10.2010 23:00 9,9 C 78 % 1019,2 hPa 0,0 l/m 0,0 km/h N 6,3 C 9,9 C 0,0 km/h
02.10.2010 00:00 9,7 C 79 % 1019,0 hPa 0,0 l/m 0,0 km/h N 6,2 C 9,7 C 0,0 km/h
02.10.2010 01:00 9,6 C 80 % 1018,9 hPa 0,0 l/m 0,0 km/h N 6,3 C 9,6 C 0,0 km/h
02.10.2010 02:00 9,3 C 81 % 1018,9 hPa 0,0 l/m 0,0 km/h N 6,3 C 9,3 C 0,0 km/h
02.10.2010 03:00 9,2 C 83 % 1018,9 hPa 0,0 l/m 0,0 km/h N 6,4 C 9,2 C 0,0 km/h
02.10.2010 04:00 9,1 C 83 % 1018,5 hPa 0,0 l/m 0,0 km/h N 6,3 C 9,1 C 0,0 km/h
02.10.2010 05:00 8,6 C 84 % 1018,5 hPa 0,0 l/m 0,0 km/h N 6,1 C 8,6 C 0,0 km/h
02.10.2010 06:00 8,7 C 86 % 1018,8 hPa 0,0 l/m 0,0 km/h N 6,4 C 8,7 C 0,0 km/h
02.10.2010 07:00 9,0 C 88 % 1018,8 hPa 0,0 l/m 0,0 km/h N 7,1 C 9,0 C 0,0 km/h
02.10.2010 08:00 9,3 C 87 % 1019,3 hPa 0,0 l/m 0,1 km/h N 7,2 C 9,3 C 1,2 km/h
02.10.2010 09:00 9,6 C 87 % 1019,6 hPa 0,0 l/m 0,1 km/h N 7,6 C 9,6 C 0,8 km/h
02.10.2010 10:00 10,1 C 87 % 1019,9 hPa 0,0 l/m 0,1 km/h N 8,1 C 10,1 C 1,6 km/h
02.10.2010 11:00 10,9 C 86 % 1020,1 hPa 0,0 l/m 0,4 km/h O-SO 8,7 C 10,9 C 2,8 km/h
02.10.2010 12:00 11,4 C 83 % 1020,3 hPa 0,0 l/m 0,7 km/h N 8,6 C 11,4 C 3,2 km/h
02.10.2010 13:00 11,8 C 81 % 1020,2 hPa 0,0 l/m 0,6 km/h N 8,6 C 11,8 C 3,6 km/h
02.10.2010 14:00 12,1 C 79 % 1020,0 hPa 0,0 l/m 0,6 km/h N 8,6 C 12,1 C 3,6 km/h
02.10.2010 15:00 12,4 C 78 % 1020,0 hPa 0,0 l/m 0,5 km/h O 8,7 C 12,4 C 3,2 km/h
02.10.2010 16:00 12,2 C 78 % 1020,3 hPa 0,0 l/m 0,3 km/h N 8,5 C 12,2 C 2,0 km/h
02.10.2010 17:00 12,1 C 79 % 1020,3 hPa 0,0 l/m 0,1 km/h N 8,5 C 12,1 C 1,6 km/h
02.10.2010 18:00 11,8 C 80 % 1020,6 hPa 0,0 l/m 0,0 km/h N 8,4 C 11,8 C 0,4 km/h
02.10.2010 19:00 11,6 C 81 % 1020,7 hPa 0,0 l/m 0,0 km/h N 8,3 C 11,6 C 0,4 km/h
02.10.2010 20:00 11,4 C 82 % 1020,9 hPa 0,0 l/m 0,0 km/h N 8,4 C 11,4 C 0,0 km/h
02.10.2010 21:00 11,3 C 83 % 1020,8 hPa 0,0 l/m 0,0 km/h N 8,6 C 11,3 C 1,6 km/h
02.10.2010 22:00 11,3 C 84 % 1020,8 hPa 0,0 l/m 0,0 km/h N 8,7 C 11,3 C 0,8 km/h
02.10.2010 23:00 11,1 C 85 % 1020,6 hPa 0,0 l/m 0,0 km/h N 8,7 C 11,1 C 0,8 km/h
03.10.2010 00:00 11,0 C 86 % 1020,3 hPa 0,0 l/m 0,0 km/h N 8,8 C 11,0 C 0,4 km/h
03.10.2010 01:00 10,9 C 87 % 1019,9 hPa 0,0 l/m 0,0 km/h N 8,8 C 10,9 C 0,0 km/h
03.10.2010 02:00 10,8 C 87 % 1019,6 hPa 0,0 l/m 0,0 km/h N 8,7 C 10,8 C 0,8 km/h
03.10.2010 03:00 10,7 C 87 % 1019,2 hPa 0,0 l/m 0,1 km/h N 8,6 C 10,7 C 2,4 km/h
03.10.2010 04:00 10,6 C 87 % 1019,0 hPa 0,0 l/m 0,0 km/h N 8,5 C 10,6 C 1,6 km/h
03.10.2010 05:00 10,4 C 87 % 1019,0 hPa 0,0 l/m 0,0 km/h N 8,4 C 10,4 C 1,2 km/h
03.10.2010 06:00 10,3 C 87 % 1019,3 hPa 0,0 l/m 0,1 km/h N 8,3 C 10,3 C 2,0 km/h
03.10.2010 07:00 10,3 C 86 % 1019,7 hPa 0,0 l/m 0,1 km/h N 8,1 C 10,3 C 2,8 km/h
03.10.2010 08:00 10,4 C 84 % 1019,9 hPa 0,0 l/m 0,3 km/h N 7,7 C 10,4 C 3,6 km/h
03.10.2010 09:00 10,5 C 82 % 1020,2 hPa 0,0 l/m 0,5 km/h S-SW 7,6 C 10,5 C 5,2 km/h
03.10.2010 10:00 10,8 C 82 % 1020,3 hPa 0,0 l/m 0,6 km/h N 7,8 C 10,8 C 4,8 km/h
03.10.2010 11:00 10,8 C 80 % 1020,4 hPa 0,0 l/m 0,8 km/h SO 7,4 C 10,8 C 8,4 km/h
03.10.2010 12:00 10,9 C 78 % 1020,3 hPa 0,0 l/m 1,0 km/h O-NO 7,2 C 10,9 C 6,0 km/h
03.10.2010 13:00 11,1 C 78 % 1019,9 hPa 0,0 l/m 1,1 km/h O-SO 7,3 C 11,1 C 8,8 km/h
03.10.2010 14:00 11,3 C 78 % 1019,3 hPa 0,0 l/m 1,4 km/h O-NO 7,5 C 11,3 C 8,1 km/h
03.10.2010 15:00 11,7 C 76 % 1018,8 hPa 0,0 l/m 1,4 km/h SO 7,5 C 11,7 C 9,3 km/h
03.10.2010 16:00 12,0 C 75 % 1018,2 hPa 0,0 l/m 1,7 km/h O-NO 7,6 C 12,0 C 12,9 km/h
03.10.2010 17:00 12,3 C 73 % 1017,8 hPa 0,0 l/m 1,2 km/h SO 7,7 C 12,3 C 10,1 km/h
03.10.2010 18:00 12,1 C 75 % 1017,6 hPa 0,0 l/m 1,4 km/h O-SO 7,7 C 12,1 C 8,9 km/h
03.10.2010 19:00 11,9 C 76 % 1017,5 hPa 0,0 l/m 0,8 km/h NO 7,9 C 11,9 C 6,4 km/h
03.10.2010 20:00 11,9 C 77 % 1017,4 hPa 0,0 l/m 0,9 km/h S-SO 8,0 C 11,9 C 9,3 km/h
03.10.2010 21:00 12,0 C 76 % 1017,2 hPa 0,0 l/m 1,2 km/h W 7,9 C 12,0 C 9,3 km/h
03.10.2010 22:00 11,9 C 77 % 1017,1 hPa 0,0 l/m 0,8 km/h N 7,9 C 11,9 C 8,0 km/h
03.10.2010 23:00 11,7 C 77 % 1016,8 hPa 0,0 l/m 0,6 km/h N 7,9 C 11,7 C 5,6 km/h
Min-Datum _ 01.10.10 27.09.10 27.09.10 - 27.09.10 - 01.10.10 01.10.10 30.09.10
_ Min-Zeit 05:15 15:00 00:00 - 06:15 - 04:45 05:15 19:00
Minimum _ 4,3 C 49 % 1007,5 hPa - 0,0 km/h - 2,1 C 4,3 C 0,0 km/h
Max-Datum _ 27.09.10 02.10.10 02.10.10 27.09.10 28.09.10 - 29.09.10 27.09.10 28.09.10
_ Max-Zeit 14:45 07:00 20:15 04:00 11:15 - 14:30 14:45 15:15
Maximum _ 18,2 C 90 % 1020,9 hPa 0,8 l/m 11,3 km/h
SO
- 9,5 C 18,2 C 38,6 km/h
S-SW
Durchschnitt _ 11,2 C 74 % 1015,9 hPa #1,8 l/m 2,0 km/h NW 6,6 C 11,1 C 8,9 km/h